White Mountain Summit Weather observations

Data are for 10 minute period ending at time listed.
 Day   Time   Solar   Ave.   Ave.  Ave.  Vector    Max.    Baro.  
  of    of     Rad.   Air    Rel.  Wind   Wind     Wind   Press.  
Year   Day            Temp.  Hum.  Speed  Dir.     Gust           
2018   (PST)   W/m2    F      %     mph   deg.      mph     mb.   
-------------------------------------------------------------------
 203    7:10  554.0    39   87.8     6    170.2     9.4   611.1 
 203    7:20  435.0    39   89.4     5    170.3     7.1   611.1 
 203    7:30  462.0    39   89.6     4    170.3     7.1   611.2 
 203    7:40  458.0    39   88.9     4    170.3     7.1   611.3 
 203    7:50  501.0    40   88.1     3    170.3     7.1   611.3 
 203    8:00  545.0    40   88.3     8    170.3     9.4   611.4 
 203    8:10  406.0    39   89.3     7    170.3     9.4   611.5 
 203    8:20  405.0    39   88.9     7    170.3     9.4   611.5 
 203    8:30  452.0    40   89.1     5    170.3     7.1   611.5 
 203    8:40  469.0    40   88.8     4    170.3     7.1   611.5 
 203    8:50  431.0    41   87.8     6    170.3     9.4   611.5 
 203    9:00  251.0    42   86.4     6    170.3    11.8   611.6 
 203    9:10  470.0    43   84.0     6    170.3     9.4   611.7 
 203    9:20  552.0    43   84.0     8    170.3    11.8   611.8 
 203    9:30  597.0    43   83.9     8    170.3    11.8   611.8 
 203    9:40  645.0    44   81.9     7    170.3    14.1   611.9 
 203    9:50  859.0    44   84.1     8    170.3    11.8   611.9 
 203   10:00  1114.0    43   86.1     6    170.3    11.8   612.0 
 203   10:10  1238.0    43   85.9     6    170.1     9.4   612.0 
 203   10:20  1210.0    44   82.6     7    170.0    14.1   612.0 
 203   10:30  1216.0    44   80.9     9    169.9    14.1   612.1 
 203   10:40  726.0    46   78.4     8    169.8    14.1   612.1 
 203   10:50  616.0    46   76.9    10    169.8    14.1   612.2 
 203   11:00  648.0    47   76.1     8    169.8    11.8   612.2 
 203   11:10  647.0    48   73.7     8    169.5    11.8   612.2 
 203   11:20  661.0    49   72.8    10    169.2    18.8   612.2 
 203   11:30  668.0    48   72.9    11    166.9    18.8   612.3 
 203   11:40  652.0    50   71.0    10    166.4    16.5   612.3 
 203   11:50  620.0    51   67.2     9    165.7    16.5   612.2 
 203   12:00  673.0    50   70.7     8    165.7    14.1   612.2 
 203   12:10  645.0    48   75.2     9    165.7    16.5   612.2 
 203   12:20  661.0    49   74.5     9    165.8    14.1   612.2 
 203   12:30  641.0    50   73.7    11     16.9    16.5   612.2 
 203   12:40  658.0    48   76.3    10    197.4    14.1   612.3 
 203   12:50  557.0    48   76.6    11    197.4    18.8   612.3 
 203   13:00  922.0    49   76.6     9    197.5    14.1   612.3 
 203   13:10  981.0    48   78.0    14    197.5    18.8   612.3 
 203   13:20  905.0    48   79.2    12    197.4    16.5   612.3 
 203   13:30  310.0    47   80.7    16    197.7    25.9   612.3 
 203   13:40    0.0    46   81.2    19    197.8    28.2   612.2 
 203   13:50    0.0    46   81.1    23    197.8    30.6   612.2 
 203   14:00  999.0    45   84.5    20    197.8    28.2   612.3 
 203   14:10    0.0    44   87.8    16    197.9    23.5   612.3 
 203   14:20  999.0    44   88.6    23    197.2    28.2   612.2 
 203   14:30  2588.0    43   89.6    12    196.8    21.2   612.3 
 203   14:40  2673.0    44   88.6     7    196.8    11.8   612.3 
 203   14:50  1983.0    44   87.4    14    196.8    18.8   612.2 
 203   15:00  1958.0    43   88.6    23    196.8    28.2   612.1 
 203   15:10  1138.0    43   89.5    29    196.3    33.0   612.0 
 203   15:20  874.0    43   87.1    24    187.7    30.6   612.2 
 203   15:30  467.0    42   85.8    26    187.0    30.6   612.1 
 203   15:40  421.0    42   83.7    24    188.4    28.2   612.2 
 203   15:50  455.0    42   84.8    23    189.8    28.2   612.2 
 203   16:00  474.0    42   87.3    17    189.8    23.5   612.3 
 203   16:10  452.0    42   85.7    15    189.8    18.8   612.3 
 203   16:20  421.0    42   82.9    12    189.8    14.1   612.3 
 203   16:30  418.0    41   83.4    11    189.8    16.5   612.3 
 203   16:40  404.0    42   67.2    15    183.5    25.9   612.2 
 203   16:50  441.0    42   62.7    10    165.6    16.5   612.2 
 203   17:00  458.0    42   60.1     7    164.8    16.5   612.1 
 203   17:10  443.0    43   64.3     9    164.7    14.1   612.1 
 203   17:20  472.0    42   73.8     7    164.5    14.1   612.1 
 203   17:30  484.0    43   65.3     4    160.1     9.4   612.2 
 203   17:40  449.0    42   78.2     2    159.9     4.7   612.2 
 203   17:50  468.0    42   79.4     2    159.9     4.7   612.2 
 203   18:00  933.0    42   73.4     4    158.8     7.1   612.1 
 203   18:10  959.0    43   69.1     4    156.8     7.1   612.2 
 203   18:20  767.0    42   71.2     2    153.4     7.1   612.1 
 203   18:30  927.0    42   77.7     3    241.6     7.1   612.1 
 203   18:40  2097.0    42   82.7     6    287.7    11.8   612.1 
 203   18:50  2334.0    42   84.3     7    291.6    11.8   612.2 
 203   19:00  1198.0    41   85.1    12    310.3    14.1   612.1 
 203   19:10  411.0    41   86.8    12    329.6    16.5   612.1 
 203   19:20  398.0    41   88.1    15    332.4    21.2   612.1 
 203   19:30  440.0    40   87.2    10    344.6    21.2   612.2 
 203   19:40  955.0    40   88.4    10    345.8    16.5   612.3 
 203   19:50  3702.0    40   90.5    10    343.9    16.5   612.3 
 203   20:00  11030.0    40   90.9    13    346.1    16.5   612.3 
 203   20:10  19420.0    40   90.8    17     14.5    25.9   612.1 
 203   20:20  22520.0    39   91.9    19     21.5    23.5   612.2 
 203   20:30  22770.0    39   92.6    17     21.1    23.5   612.3 
 203   20:40  22900.0    39   93.1    15     17.0    21.2   612.3 
 203   20:50  19250.0    39   86.5    11     16.9    16.5   612.4 
 203   21:00  14310.0    39   83.5     6     16.9     9.4   612.5 
 203   21:10  19550.0    39   85.4     5     16.9     9.4   612.6 
 203   21:20  14140.0    39   81.7     3     16.9     9.4   612.6 
 203   21:30  9470.0    39   80.1     9     16.9    14.1   612.6 
 203   21:40  6555.0    39   75.6     5     16.9    11.8   612.6 
 203   21:50  5363.0    39   76.3     4     16.9     7.1   612.6 
 203   22:00  5627.0    39   79.1     8     16.9    11.8   612.6 
 203   22:10  4860.0    39   75.9     8     16.9    11.8   612.6 
 203   22:20  4058.0    39   74.5     5     16.9     7.1   612.5 
 203   22:30  3845.0    39   75.7     5     16.9     9.4   612.5 
 203   22:40  3752.0    39   75.1     6     16.9     9.4   612.5 
 203   22:50  3616.0    38   76.6     6     17.4     9.4   612.5 
 203   23:00  3601.0    38   77.7     5     17.7     7.1   612.4 
 203   23:10  3574.0    38   78.5     2     17.8     4.7   612.4 
 203   23:20  3496.0    38   79.7     1     17.8     2.4   612.4 
 203   23:30  3436.0    38   80.7     4     17.8     7.1   612.4 
 203   23:40  3398.0    39   76.1     8     17.8    11.8   612.4 
 203   23:50  3279.0    39   75.2    10     18.0    11.8   612.4 
 204    0:00  3185.0    39   69.6     5     18.1     9.4   612.4 
 204    0:10  3141.0    39   66.9     8     23.2    11.8   612.4 
 204    0:20  3169.0    39   66.0     7     26.9    11.8   612.4 
 204    0:30  3221.0    38   73.6    10     27.3    11.8   612.3 
 204    0:40  3163.0    38   69.8    12     27.4    14.1   612.3 
 204    0:50  3054.0    39   66.2    13     27.7    14.1   612.3 
 204    1:00  2998.0    38   71.3    12     27.7    14.1   612.2 
 204    1:10  3003.0    38   76.4    13     21.4    16.5   612.1 
 204    1:20  2963.0    38   77.6    10     18.1    14.1   612.1 
 204    1:30  3128.0    38   74.4    11     17.7    14.1   612.1 
 204    1:40  3018.0    38   81.7    10     13.8    11.8   612.0 
 204    1:50  3170.0    38   86.3     8     12.1    11.8   612.0 
 204    2:00  2645.0    38   79.9    10     12.1    11.8   611.9 
 204    2:10  2585.0    38   80.7    10     12.1    11.8   611.8 
 204    2:20  2472.0    38   79.0    10     12.1    11.8   611.9 
 204    2:30  2253.0    38   74.2     8     12.1    11.8   611.8 
 204    2:40  2308.0    38   73.5     8     12.1     9.4   611.8 
 204    2:50  2370.0    38   72.7     6     12.1     9.4   611.8 
 204    3:00  2339.0    38   72.0     9     12.1    11.8   611.8 
 204    3:10  2315.0    38   72.9     9     12.1    11.8   611.8 
 204    3:20  2361.0    38   73.5    10     12.1    11.8   611.8 
 204    3:30  2316.0    38   74.8     8     12.1     9.4   611.8 
 204    3:40  2221.0    38   73.1     4     12.1     7.1   611.8 
 204    3:50  2262.0    38   72.1     2     12.1     4.7   611.8 
 204    4:00  2365.0    38   68.6     6     12.1    11.8   611.8 
 204    4:10  2389.0    38   66.3    10     12.1    14.1   611.8 
 204    4:20  2401.0    38   66.2    10     12.1    14.1   611.8 
 204    4:30  2370.0    39   66.0    13     16.4    16.5   611.8 
 204    4:40  2421.0    39   64.9    13     20.0    16.5   611.8 
 204    4:50  2455.0    39   64.6    13     25.0    14.1   611.8 
 204    5:00  2324.0    38   64.9    12     30.0    14.1   611.8 
 204    5:10  2712.0    38   66.8    12     30.5    14.1   611.8 
 204    5:20  1731.0    38   70.5    10     31.2    11.8   611.9 
 204    5:30  932.0    38   71.1     8     31.4    11.8   612.0 
 204    5:40  306.0    38   70.6    10     31.7    11.8   612.0 
 204    5:50   87.0    38   70.8    10     32.0    11.8   612.0 
 204    6:00  368.0    38   70.1     9     32.1    11.8   612.0 
 204    6:10  756.0    39   69.6     9     32.1    11.8   612.0 
 204    6:20  699.0    39   67.9     7     32.1     9.4   612.1 
 204    6:30  980.0    40   65.7     6     32.1     9.4   612.1 
 204    6:40  640.0    40   64.4     8     32.1     9.4   612.1 
 204    6:50  345.0    41   64.0     7     32.1     9.4   612.1 
 204    7:00   41.0    41   63.0     4     32.1     7.1   612.2 

Return to White Mountain graphs page.


Western Regional Climate Center,wrcc@dri.edu